Time;durP1;ratioP1;P1;durP2;ratioP2;P2;SDS_P1;SDS_P2;PMS_P1;PMS_P2;Temp;Humidity;BMP_temperature;BMP_pressure;BME280_temperature;BME280_humidity;BME280_pressure;Samples;Min_cycle;Max_cycle;Signal;HPM_P1;HPM_P2
2023/11/30 00:02:15;;;;;;;8.70;5.47;;;2.30;77.60;;;;;;5024726;28;20465;-79
2023/11/30 00:04:41;;;;;;;7.67;5.23;;;2.30;77.40;;;;;;5026942;28;20753;-78
2023/11/30 00:07:11;;;;;;;10.13;5.40;;;2.20;77.40;;;;;;5024788;28;20618;-79
2023/11/30 00:09:37;;;;;;;7.82;5.00;;;2.30;77.40;;;;;;5020675;28;20465;-78
2023/11/30 00:12:04;;;;;;;16.48;6.63;;;2.30;77.00;;;;;;5026000;28;20182;-78
2023/11/30 00:14:30;;;;;;;9.02;5.63;;;2.30;77.10;;;;;;5033570;28;20196;-78
2023/11/30 00:16:55;;;;;;;10.77;6.10;;;2.30;77.40;;;;;;5027369;28;20202;-81
2023/11/30 00:19:21;;;;;;;11.80;5.87;;;2.30;77.60;;;;;;5026212;28;20921;-79
2023/11/30 00:21:46;;;;;;;9.67;5.30;;;2.30;77.80;;;;;;5023103;28;20228;-78
2023/11/30 00:24:12;;;;;;;13.07;5.63;;;2.30;77.80;;;;;;5042931;28;20193;-78
2023/11/30 00:26:39;;;;;;;11.70;5.73;;;2.20;77.70;;;;;;5040890;28;20204;-78
2023/11/30 00:29:05;;;;;;;12.55;6.28;;;2.10;78.30;;;;;;5037058;28;20253;-79
2023/11/30 00:31:31;;;;;;;10.30;5.78;;;2.10;78.30;;;;;;5018878;28;20181;-79
2023/11/30 00:33:56;;;;;;;10.53;6.27;;;2.20;78.40;;;;;;5022408;28;20178;-78
2023/11/30 00:36:22;;;;;;;12.70;5.77;;;2.10;78.40;;;;;;5021266;28;20217;-79
2023/11/30 00:38:47;;;;;;;14.50;6.73;;;2.10;78.60;;;;;;5023715;28;20219;-80
2023/11/30 00:41:15;;;;;;;10.83;6.40;;;2.10;78.60;;;;;;5017513;28;20511;-78
2023/11/30 00:43:40;;;;;;;11.00;6.17;;;2.10;79.00;;;;;;5019679;28;20412;-77
2023/11/30 00:46:08;;;;;;;10.10;6.20;;;2.10;79.20;;;;;;5018909;28;20431;-77
2023/11/30 00:48:34;;;;;;;10.48;5.95;;;2.20;79.30;;;;;;5023280;28;20693;-77
2023/11/30 00:51:00;;;;;;;11.68;6.43;;;2.20;79.00;;;;;;5010445;28;20201;-77
2023/11/30 00:53:26;;;;;;;11.17;5.90;;;2.20;79.00;;;;;;5018398;28;21052;-78
2023/11/30 00:55:51;;;;;;;10.70;6.10;;;2.20;79.00;;;;;;5021982;28;20209;-78
2023/11/30 00:58:17;;;;;;;9.27;5.73;;;2.20;78.90;;;;;;5018732;28;20185;-78
2023/11/30 01:00:42;;;;;;;10.63;5.80;;;2.20;79.00;;;;;;5013240;28;20224;-78
2023/11/30 01:03:08;;;;;;;10.27;5.87;;;2.20;78.90;;;;;;5020507;28;20185;-78
2023/11/30 01:05:34;;;;;;;10.47;6.07;;;2.20;78.90;;;;;;5024418;28;20667;-78
2023/11/30 01:07:59;;;;;;;11.07;5.60;;;2.20;79.00;;;;;;5030765;28;20189;-79
2023/11/30 01:10:25;;;;;;;9.20;5.33;;;2.20;78.60;;;;;;5019902;28;20297;-79
2023/11/30 01:12:51;;;;;;;10.20;6.10;;;2.20;78.60;;;;;;5019028;28;20212;-79
2023/11/30 01:15:16;;;;;;;11.20;6.10;;;2.10;78.60;;;;;;5017232;28;20240;-79
2023/11/30 01:17:42;;;;;;;10.03;6.00;;;2.00;79.00;;;;;;5019833;28;20933;-80
2023/11/30 01:20:10;;;;;;;10.37;5.90;;;2.00;79.20;;;;;;5009067;28;20209;-79
2023/11/30 01:22:36;;;;;;;10.63;6.35;;;2.00;79.30;;;;;;5020265;28;20243;-78
2023/11/30 01:25:01;;;;;;;10.13;5.93;;;1.90;79.50;;;;;;5025151;28;20285;-79
2023/11/30 01:27:27;;;;;;;11.17;5.80;;;2.00;79.60;;;;;;5022671;28;20202;-77
2023/11/30 01:29:52;;;;;;;12.63;6.20;;;2.00;79.70;;;;;;5024395;28;20209;-79
2023/11/30 01:32:18;;;;;;;9.33;6.13;;;2.00;79.70;;;;;;5016440;28;20202;-78
2023/11/30 01:34:44;;;;;;;11.63;6.73;;;2.00;79.70;;;;;;5022989;28;20653;-78
2023/11/30 01:37:09;;;;;;;10.37;5.80;;;2.10;79.60;;;;;;5019937;28;20221;-77
2023/11/30 01:39:35;;;;;;;12.70;6.03;;;2.00;79.60;;;;;;5018598;28;20209;-78
2023/11/30 01:42:00;;;;;;;13.13;6.20;;;2.00;79.70;;;;;;5012388;28;20239;-77
2023/11/30 01:44:27;;;;;;;12.47;5.80;;;1.90;79.90;;;;;;5018406;28;20185;-78
2023/11/30 01:46:53;;;;;;;10.20;5.70;;;1.90;80.00;;;;;;5018588;28;20792;-78
2023/11/30 01:49:20;;;;;;;10.18;6.30;;;1.90;80.20;;;;;;5020233;28;20189;-78
2023/11/30 01:51:46;;;;;;;10.48;6.28;;;1.90;80.30;;;;;;5025094;28;20201;-79
2023/11/30 01:54:12;;;;;;;15.02;6.90;;;1.80;80.30;;;;;;5022605;28;20214;-78
2023/11/30 01:56:39;;;;;;;9.37;6.30;;;1.80;80.60;;;;;;5020461;28;20209;-77
2023/11/30 01:59:07;;;;;;;10.45;6.03;;;1.80;80.80;;;;;;5018525;28;20630;-77
2023/11/30 02:01:34;;;;;;;8.82;5.90;;;1.90;80.60;;;;;;5017489;28;20217;-78
2023/11/30 02:04:10;;;;;;;10.52;6.03;;;1.90;80.50;;;;;;5017805;28;20236;-79
2023/11/30 02:06:36;;;;;;;11.40;6.50;;;1.90;80.30;;;;;;5019819;28;20204;-77
2023/11/30 02:09:02;;;;;;;9.60;6.10;;;1.90;80.30;;;;;;5014471;28;20229;-78
2023/11/30 02:11:27;;;;;;;11.73;6.40;;;1.90;80.30;;;;;;5006987;28;20255;-79
2023/11/30 02:13:54;;;;;;;9.27;5.30;;;2.00;79.90;;;;;;5013912;28;20257;-79
2023/11/30 02:16:19;;;;;;;8.30;5.50;;;2.00;79.30;;;;;;5013695;28;20218;-79
2023/11/30 02:18:45;;;;;;;11.27;6.47;;;2.00;79.20;;;;;;5012452;28;20186;-79
2023/11/30 02:21:11;;;;;;;11.93;6.23;;;1.90;79.20;;;;;;5007011;28;20206;-79
2023/11/30 02:23:36;;;;;;;13.93;6.17;;;1.80;79.30;;;;;;5014290;28;20197;-80
2023/11/30 02:26:02;;;;;;;10.87;6.60;;;1.70;79.70;;;;;;5018502;28;20178;-80
2023/11/30 02:28:28;;;;;;;10.33;6.10;;;1.60;80.00;;;;;;5020215;28;20425;-80
2023/11/30 02:30:53;;;;;;;11.07;6.47;;;1.60;80.30;;;;;;5018216;28;20201;-80
2023/11/30 02:33:19;;;;;;;11.40;5.87;;;1.50;80.50;;;;;;5018677;28;20202;-79
2023/11/30 02:35:45;;;;;;;9.07;5.70;;;1.40;80.80;;;;;;5012709;28;20213;-79
2023/11/30 02:38:10;;;;;;;11.77;6.33;;;1.40;81.10;;;;;;5017957;28;20178;-79
2023/11/30 02:40:36;;;;;;;11.67;6.83;;;1.40;81.20;;;;;;5012665;28;20206;-79
2023/11/30 02:43:02;;;;;;;9.67;6.00;;;1.40;81.10;;;;;;5008880;28;20677;-78
2023/11/30 02:45:27;;;;;;;11.47;6.67;;;1.40;81.20;;;;;;5015755;28;20243;-80
2023/11/30 02:47:55;;;;;;;13.87;6.30;;;1.40;81.40;;;;;;5017771;28;20188;-79
2023/11/30 02:50:21;;;;;;;10.25;5.75;;;1.40;81.50;;;;;;5014341;28;20217;-79
2023/11/30 02:52:46;;;;;;;11.00;6.37;;;1.30;81.50;;;;;;5020790;28;20186;-78
2023/11/30 02:55:12;;;;;;;20.70;6.10;;;1.40;81.70;;;;;;5015711;28;20198;-79
2023/11/30 02:57:38;;;;;;;10.13;5.97;;;1.40;81.70;;;;;;5011358;28;20217;-79
2023/11/30 03:00:04;;;;;;;19.80;6.03;;;1.40;81.50;;;;;;5012744;28;20205;-78
2023/11/30 03:02:31;;;;;;;11.13;5.50;;;1.40;81.50;;;;;;5016207;28;20190;-79
2023/11/30 03:04:58;;;;;;;11.15;6.10;;;1.40;81.40;;;;;;5023971;28;20166;-79
2023/11/30 03:07:23;;;;;;;11.07;5.97;;;1.40;81.50;;;;;;5016650;28;21173;-78
2023/11/30 03:09:49;;;;;;;8.77;5.07;;;1.40;81.50;;;;;;5019747;28;20257;-79
2023/11/30 03:12:15;;;;;;;7.70;5.10;;;1.40;81.70;;;;;;5017962;28;20224;-80
2023/11/30 03:14:47;;;;;;;11.38;6.20;;;1.40;81.50;;;;;;5016764;28;20201;-79
2023/11/30 03:17:13;;;;;;;11.50;5.47;;;1.30;81.70;;;;;;5015108;28;20322;-78
2023/11/30 03:19:39;;;;;;;14.63;6.00;;;1.30;81.80;;;;;;5013148;28;20254;-79
2023/11/30 03:22:04;;;;;;;9.53;5.67;;;1.20;82.10;;;;;;5017547;28;20424;-79
2023/11/30 03:24:30;;;;;;;9.53;5.20;;;1.20;82.10;;;;;;5015075;28;20184;-79
2023/11/30 03:26:55;;;;;;;7.87;4.87;;;1.10;82.10;;;;;;5016693;28;20309;-79
2023/11/30 03:29:24;;;;;;;8.43;5.10;;;1.10;82.10;;;;;;5014680;28;20243;-80
2023/11/30 03:31:53;;;;;;;10.90;5.50;;;1.00;82.20;;;;;;5027871;28;20170;-80
2023/11/30 03:34:19;;;;;;;9.93;5.35;;;1.00;82.40;;;;;;5033954;28;20185;-80
2023/11/30 03:36:45;;;;;;;10.10;5.30;;;1.00;82.50;;;;;;5056967;28;20221;-79
2023/11/30 03:39:11;;;;;;;9.70;6.00;;;1.10;82.80;;;;;;5027637;28;20186;-82
2023/11/30 03:41:36;;;;;;;9.93;5.30;;;1.10;82.50;;;;;;5025263;28;20494;-79
2023/11/30 03:44:02;;;;;;;11.37;5.70;;;1.10;82.50;;;;;;5014928;28;20198;-80
2023/11/30 03:46:28;;;;;;;10.30;5.30;;;1.10;82.80;;;;;;5026603;28;20174;-80
2023/11/30 03:48:54;;;;;;;8.50;5.20;;;1.10;82.50;;;;;;5030036;28;20221;-80
2023/11/30 03:51:20;;;;;;;11.85;5.75;;;1.20;82.50;;;;;;5015508;28;20492;-81
2023/11/30 03:53:46;;;;;;;8.55;5.57;;;1.20;82.40;;;;;;5014673;28;20232;-78
2023/11/30 03:56:12;;;;;;;6.83;5.00;;;1.20;82.40;;;;;;5016270;28;20217;-78
2023/11/30 03:58:38;;;;;;;10.33;5.30;;;1.20;82.40;;;;;;5019172;28;20918;-79
2023/11/30 04:01:04;;;;;;;10.83;5.73;;;1.30;82.50;;;;;;5019437;28;20618;-80
2023/11/30 04:03:30;;;;;;;8.23;4.80;;;1.30;82.40;;;;;;5022581;28;20445;-79
2023/11/30 04:05:55;;;;;;;11.00;5.77;;;1.30;82.10;;;;;;5025222;28;20209;-80
2023/11/30 04:08:21;;;;;;;10.07;5.70;;;1.30;81.90;;;;;;5022355;28;20182;-79
2023/11/30 04:10:47;;;;;;;8.80;5.50;;;1.40;81.80;;;;;;5017416;28;20288;-80
2023/11/30 04:13:12;;;;;;;10.33;6.20;;;1.40;81.40;;;;;;5030045;28;20186;-79
2023/11/30 04:15:38;;;;;;;11.23;5.97;;;1.30;81.20;;;;;;5025854;28;20344;-78
2023/11/30 04:18:03;;;;;;;12.23;6.43;;;1.40;81.40;;;;;;5028977;28;20173;-79
2023/11/30 04:20:29;;;;;;;11.40;6.23;;;1.40;81.20;;;;;;5015420;28;20251;-78
2023/11/30 04:22:55;;;;;;;11.83;6.30;;;1.40;81.20;;;;;;5023385;28;20304;-78
2023/11/30 04:25:22;;;;;;;9.57;6.30;;;1.40;81.40;;;;;;5021209;28;20252;-78
2023/11/30 04:27:48;;;;;;;11.70;5.95;;;1.40;81.70;;;;;;5032846;28;20231;-79
2023/11/30 04:30:13;;;;;;;10.50;6.40;;;1.40;81.80;;;;;;5016376;28;20201;-78
2023/11/30 04:32:39;;;;;;;7.30;5.30;;;1.40;81.90;;;;;;5024833;28;20185;-78
2023/11/30 04:35:05;;;;;;;9.60;5.27;;;1.50;81.70;;;;;;5018228;28;20190;-79
2023/11/30 04:37:31;;;;;;;13.25;5.80;;;1.40;81.50;;;;;;5026848;28;20359;-78
2023/11/30 04:39:56;;;;;;;11.50;6.30;;;1.40;81.70;;;;;;5014722;28;20247;-78
2023/11/30 04:42:22;;;;;;;11.70;5.97;;;1.50;81.90;;;;;;5025003;28;20189;-80
2023/11/30 04:44:48;;;;;;;9.53;5.87;;;1.50;81.90;;;;;;5021634;28;20185;-80
2023/11/30 04:47:14;;;;;;;13.88;6.88;;;1.50;81.70;;;;;;5022380;28;20682;-78
2023/11/30 04:49:39;;;;;;;10.80;6.00;;;1.50;81.70;;;;;;5017951;28;20237;-79
2023/11/30 04:52:05;;;;;;;13.50;5.73;;;1.40;81.70;;;;;;5024551;28;20547;-78
2023/11/30 04:54:31;;;;;;;10.50;6.00;;;1.40;81.90;;;;;;5024971;28;20197;-77
2023/11/30 04:56:56;;;;;;;11.87;6.27;;;1.40;81.90;;;;;;5021530;28;20724;-79
2023/11/30 04:59:22;;;;;;;11.83;6.50;;;1.40;81.50;;;;;;5019045;28;20607;-77
2023/11/30 05:01:47;;;;;;;11.20;6.43;;;1.40;81.50;;;;;;5017894;28;20185;-78
2023/11/30 05:04:13;;;;;;;10.87;6.50;;;1.30;81.70;;;;;;5020224;28;20181;-81
2023/11/30 05:06:39;;;;;;;13.43;6.53;;;1.20;81.80;;;;;;5024307;28;20181;-78
2023/11/30 05:09:05;;;;;;;12.40;5.77;;;1.20;82.20;;;;;;5023238;28;20567;-79
2023/11/30 05:11:31;;;;;;;13.13;6.90;;;1.30;82.50;;;;;;5012914;28;20259;-79
2023/11/30 05:13:57;;;;;;;12.07;6.33;;;1.30;82.70;;;;;;5018294;28;20193;-81
2023/11/30 05:16:22;;;;;;;7.47;5.43;;;1.20;82.50;;;;;;5018679;28;20206;-79
2023/11/30 05:18:48;;;;;;;12.10;6.40;;;1.20;82.70;;;;;;5020834;28;20192;-80
2023/11/30 05:21:13;;;;;;;13.13;6.67;;;1.20;82.70;;;;;;5013801;28;20202;-80
2023/11/30 05:23:39;;;;;;;12.37;6.90;;;1.30;82.70;;;;;;5020705;28;20228;-80
2023/11/30 05:26:05;;;;;;;14.17;6.37;;;1.20;82.40;;;;;;5019139;28;20193;-79
2023/11/30 05:28:32;;;;;;;11.75;6.53;;;1.30;82.50;;;;;;5025480;28;20193;-80
2023/11/30 05:30:58;;;;;;;9.35;6.43;;;1.30;82.40;;;;;;5022239;28;20210;-80
2023/11/30 05:33:25;;;;;;;14.73;8.18;;;1.20;82.20;;;;;;5030194;28;20629;-78
2023/11/30 05:35:51;;;;;;;11.38;7.22;;;1.20;82.50;;;;;;5024907;28;20208;-77
2023/11/30 05:38:17;;;;;;;9.70;6.40;;;1.20;82.80;;;;;;5019871;28;20181;-80
2023/11/30 05:40:42;;;;;;;12.30;7.10;;;1.20;83.00;;;;;;5021393;28;20228;-81
2023/11/30 05:43:08;;;;;;;15.53;6.90;;;1.30;83.10;;;;;;5017828;28;20189;-79
2023/11/30 05:45:33;;;;;;;15.87;7.47;;;1.30;82.80;;;;;;5018190;28;20189;-79
2023/11/30 05:47:59;;;;;;;11.70;6.63;;;1.40;82.50;;;;;;5017723;28;20190;-81
2023/11/30 05:50:24;;;;;;;14.97;7.47;;;1.40;81.70;;;;;;5009769;28;20593;-79
2023/11/30 05:52:50;;;;;;;13.90;7.73;;;1.30;81.50;;;;;;5019037;28;20230;-79
2023/11/30 05:55:16;;;;;;;14.47;7.93;;;1.20;81.50;;;;;;5018442;28;20205;-78
2023/11/30 05:57:41;;;;;;;15.53;7.40;;;1.20;81.80;;;;;;5020560;28;20189;-78
2023/11/30 06:00:10;;;;;;;14.60;6.90;;;1.20;81.80;;;;;;5008114;28;20956;-78
2023/11/30 06:02:36;;;;;;;17.58;7.72;;;1.20;81.90;;;;;;5014341;28;20208;-78
2023/11/30 06:05:02;;;;;;;14.65;7.25;;;1.30;81.70;;;;;;5017054;28;20194;-80
2023/11/30 06:07:29;;;;;;;16.87;8.73;;;1.30;81.20;;;;;;5023669;28;20216;-78
2023/11/30 06:09:55;;;;;;;11.98;7.57;;;1.30;81.20;;;;;;5022061;28;20259;-80
2023/11/30 06:12:21;;;;;;;10.40;6.90;;;1.30;81.20;;;;;;5016727;28;20600;-78
2023/11/30 06:14:46;;;;;;;16.02;8.40;;;1.30;81.50;;;;;;5017375;28;20261;-79
2023/11/30 06:17:12;;;;;;;14.13;8.13;;;1.30;81.70;;;;;;5020852;28;20296;-79
2023/11/30 06:19:38;;;;;;;12.63;8.00;;;1.30;81.70;;;;;;5020291;28;20213;-76
2023/11/30 06:22:04;;;;;;;12.35;7.85;;;1.40;81.70;;;;;;5022268;28;20185;-77
2023/11/30 06:24:30;;;;;;;11.07;7.90;;;1.40;81.50;;;;;;5024445;28;20200;-78
2023/11/30 06:26:55;;;;;;;15.50;7.90;;;1.40;81.50;;;;;;5017072;28;20192;-77
2023/11/30 06:29:21;;;;;;;17.30;7.67;;;1.40;81.40;;;;;;5014327;28;20237;-79
2023/11/30 06:31:47;;;;;;;16.33;8.17;;;1.50;81.40;;;;;;5015183;28;20186;-78
2023/11/30 06:34:12;;;;;;;19.57;9.10;;;1.50;80.90;;;;;;5020753;28;20682;-76
2023/11/30 06:36:38;;;;;;;14.20;8.27;;;1.40;80.80;;;;;;5018410;28;20209;-77
2023/11/30 06:39:04;;;;;;;14.60;7.60;;;1.40;80.90;;;;;;5023240;28;20240;-78
2023/11/30 06:41:30;;;;;;;17.83;8.55;;;1.40;81.10;;;;;;5020946;28;20198;-76
2023/11/30 06:43:56;;;;;;;15.33;9.00;;;1.50;81.10;;;;;;5029128;28;20212;-79
2023/11/30 06:46:23;;;;;;;15.43;9.02;;;1.50;80.90;;;;;;5021022;28;20568;-77
2023/11/30 06:48:51;;;;;;;15.85;9.73;;;1.50;80.60;;;;;;5026874;28;20212;-77
2023/11/30 06:51:17;;;;;;;21.10;9.40;;;1.40;80.50;;;;;;5020067;28;20244;-80
2023/11/30 06:53:43;;;;;;;16.40;8.67;;;1.30;80.90;;;;;;5025768;28;20169;-78
2023/11/30 06:56:12;;;;;;;14.52;9.00;;;1.30;81.20;;;;;;5026728;28;20494;-79
2023/11/30 06:58:38;;;;;;;17.67;10.00;;;1.30;81.40;;;;;;5027314;28;20181;-79
2023/11/30 07:01:09;;;;;;;23.35;10.38;;;1.30;81.70;;;;;;5022620;28;20216;-79
2023/11/30 07:03:35;;;;;;;17.05;8.95;;;1.40;81.90;;;;;;5024987;28;20190;-78
2023/11/30 07:06:01;;;;;;;18.93;10.37;;;1.40;81.90;;;;;;5025797;28;20701;-78
2023/11/30 07:08:27;;;;;;;15.90;9.00;;;1.40;81.90;;;;;;5027950;28;20201;-80
2023/11/30 07:10:52;;;;;;;15.60;8.90;;;1.50;81.50;;;;;;5021245;28;20255;-76
2023/11/30 07:13:19;;;;;;;17.30;9.53;;;1.40;81.10;;;;;;5019077;28;20753;-77
2023/11/30 07:15:44;;;;;;;15.68;9.23;;;1.40;81.40;;;;;;5026567;28;20258;-76
2023/11/30 07:18:11;;;;;;;15.10;8.90;;;1.40;81.50;;;;;;5020371;28;20178;-75
2023/11/30 07:20:37;;;;;;;20.08;9.90;;;1.40;81.50;;;;;;5016808;28;20221;-77
2023/11/30 07:23:04;;;;;;;16.17;9.40;;;1.40;81.50;;;;;;5018124;28;20197;-77
2023/11/30 07:25:30;;;;;;;15.23;9.18;;;1.50;81.40;;;;;;5027873;28;20201;-76
2023/11/30 07:27:56;;;;;;;21.47;9.17;;;1.50;81.10;;;;;;5017679;28;20189;-76
2023/11/30 07:30:22;;;;;;;14.17;8.03;;;1.50;81.10;;;;;;5014043;28;20296;-78
2023/11/30 07:32:47;;;;;;;14.90;9.00;;;1.50;81.10;;;;;;5015240;28;21094;-76
2023/11/30 07:35:13;;;;;;;14.20;8.90;;;1.50;81.10;;;;;;5022717;28;20554;-77
2023/11/30 07:37:39;;;;;;;15.53;9.30;;;1.50;81.20;;;;;;5016996;28;20274;-75
2023/11/30 07:40:06;;;;;;;18.57;10.00;;;1.50;81.40;;;;;;5018168;28;20213;-79
2023/11/30 07:42:32;;;;;;;12.52;7.90;;;1.50;81.40;;;;;;5026133;28;20224;-80
2023/11/30 07:44:57;;;;;;;15.23;9.27;;;1.50;81.50;;;;;;5030892;28;20189;-80
2023/11/30 07:47:23;;;;;;;15.60;9.20;;;1.60;81.40;;;;;;5033671;28;20209;-79
2023/11/30 07:49:48;;;;;;;15.77;9.70;;;1.70;81.10;;;;;;5036367;28;20270;-79
2023/11/30 07:52:14;;;;;;;15.10;9.10;;;1.70;81.20;;;;;;5034317;28;20166;-78
2023/11/30 07:54:40;;;;;;;20.80;10.27;;;1.80;81.40;;;;;;5045167;28;20185;-78
2023/11/30 07:57:06;;;;;;;16.13;9.75;;;1.80;81.40;;;;;;5035746;28;20210;-79
2023/11/30 07:59:32;;;;;;;19.73;10.23;;;2.00;81.10;;;;;;5027627;28;20225;-79
2023/11/30 08:01:57;;;;;;;15.73;9.33;;;2.00;80.00;;;;;;5027910;28;20186;-80
2023/11/30 08:04:23;;;;;;;14.60;8.77;;;2.00;80.00;;;;;;5044398;28;20420;-81
2023/11/30 08:06:49;;;;;;;17.77;9.20;;;2.20;80.00;;;;;;5029483;28;20195;-81
2023/11/30 08:09:14;;;;;;;14.47;9.23;;;2.20;80.00;;;;;;5026561;28;20679;-79
2023/11/30 08:11:40;;;;;;;15.43;9.23;;;2.20;79.90;;;;;;5030275;28;20193;-80
2023/11/30 08:14:06;;;;;;;17.53;9.37;;;2.30;79.60;;;;;;5023866;28;20196;-79
2023/11/30 08:16:33;;;;;;;17.37;9.20;;;2.40;79.50;;;;;;5029580;28;20548;-80
2023/11/30 08:18:58;;;;;;;14.23;9.30;;;2.50;78.90;;;;;;5024367;28;20186;-80
2023/11/30 08:21:24;;;;;;;17.60;9.57;;;2.60;78.30;;;;;;5024898;28;20850;-78
2023/11/30 08:23:49;;;;;;;17.60;10.00;;;2.70;77.70;;;;;;5033958;28;20248;-79
2023/11/30 08:26:16;;;;;;;17.60;9.60;;;2.70;77.00;;;;;;5035085;28;20217;-78
2023/11/30 08:28:44;;;;;;;14.57;8.90;;;2.70;76.80;;;;;;5027790;28;20261;-78
2023/11/30 08:31:10;;;;;;;20.58;10.50;;;2.70;77.00;;;;;;5016811;28;21303;-81
2023/11/30 08:33:36;;;;;;;16.97;9.97;;;2.70;77.00;;;;;;5025713;28;20185;-79
2023/11/30 08:36:04;;;;;;;15.10;10.33;;;2.70;76.80;;;;;;5027159;28;20475;-80
2023/11/30 08:38:35;;;;;;;16.67;9.87;;;2.70;76.80;;;;;;5023452;28;20190;-80
2023/11/30 08:41:01;;;;;;;15.18;9.77;;;2.80;77.00;;;;;;5021355;28;20572;-79
2023/11/30 08:43:27;;;;;;;14.10;9.70;;;2.80;76.80;;;;;;5028742;28;20206;-80
2023/11/30 08:45:54;;;;;;;25.07;11.10;;;2.90;76.80;;;;;;5031448;28;20484;-79
2023/11/30 08:48:20;;;;;;;20.10;8.90;;;2.90;76.10;;;;;;5018403;28;20197;-79
2023/11/30 08:50:46;;;;;;;20.47;9.57;;;2.70;76.40;;;;;;5018385;28;20558;-82
2023/11/30 08:53:12;;;;;;;25.20;11.33;;;2.60;76.80;;;;;;5018560;28;20276;-79
2023/11/30 08:55:37;;;;;;;30.03;11.60;;;2.60;77.30;;;;;;5023670;28;20481;-79
2023/11/30 08:58:04;;;;;;;18.00;10.73;;;2.70;77.70;;;;;;5022847;28;20613;-81
2023/11/30 09:00:30;;;;;;;19.25;10.25;;;2.70;77.40;;;;;;5020160;28;20210;-80
2023/11/30 09:02:57;;;;;;;19.10;10.60;;;2.70;77.00;;;;;;5024076;28;20186;-81
2023/11/30 09:05:23;;;;;;;21.70;10.27;;;2.70;77.10;;;;;;5028259;28;20189;-81
2023/11/30 09:07:50;;;;;;;16.97;9.50;;;2.70;77.30;;;;;;5024762;28;20208;-78
2023/11/30 09:10:20;;;;;;;21.20;10.30;;;2.70;77.40;;;;;;5019458;28;20810;-81
2023/11/30 09:12:46;;;;;;;15.65;9.80;;;2.80;77.40;;;;;;5027878;28;20255;-80
2023/11/30 09:15:12;;;;;;;20.40;10.00;;;2.70;77.30;;;;;;5024902;28;20186;-79
2023/11/30 09:17:38;;;;;;;18.92;10.32;;;2.60;77.30;;;;;;5032831;28;20578;-79
2023/11/30 09:20:08;;;;;;;19.95;11.27;;;2.70;77.70;;;;;;5021681;28;20268;-80
2023/11/30 09:22:35;;;;;;;19.37;10.40;;;2.80;77.70;;;;;;5028842;28;20185;-80
2023/11/30 09:25:01;;;;;;;16.23;9.50;;;2.90;77.70;;;;;;5021860;28;20999;-79
2023/11/30 09:27:26;;;;;;;21.80;10.47;;;3.10;77.60;;;;;;5026455;28;20444;-82
2023/11/30 09:29:52;;;;;;;16.60;10.73;;;3.10;77.10;;;;;;5023449;28;20480;-82
2023/11/30 09:32:18;;;;;;;15.27;9.77;;;3.30;76.70;;;;;;5026224;28;20745;-80
2023/11/30 09:34:44;;;;;;;21.57;11.17;;;3.40;76.10;;;;;;5025390;28;20421;-81
2023/11/30 09:37:10;;;;;;;17.83;10.60;;;3.40;75.70;;;;;;5023260;28;20483;-81
2023/11/30 09:39:36;;;;;;;19.83;11.10;;;3.50;75.80;;;;;;5022095;28;20508;-80
2023/11/30 09:42:05;;;;;;;23.67;10.83;;;3.50;75.50;;;;;;5029395;28;20709;-80
2023/11/30 09:44:31;;;;;;;19.43;11.17;;;3.60;75.20;;;;;;5022457;28;20301;-79
2023/11/30 09:46:56;;;;;;;22.17;10.70;;;3.50;74.90;;;;;;5034330;28;20432;-80
2023/11/30 09:49:22;;;;;;;23.40;11.90;;;3.70;75.10;;;;;;5026072;28;20197;-79
2023/11/30 09:51:52;;;;;;;19.10;10.23;;;3.70;74.80;;;;;;5027617;28;20196;-80
2023/11/30 09:54:22;;;;;;;20.30;10.83;;;3.80;74.50;;;;;;5026755;28;20182;-80
2023/11/30 09:56:49;;;;;;;20.57;10.10;;;3.70;74.20;;;;;;5029679;28;20530;-79
2023/11/30 09:59:16;;;;;;;20.87;11.57;;;3.80;74.50;;;;;;5022076;28;20448;-79
2023/11/30 10:01:42;;;;;;;18.17;10.93;;;3.90;74.00;;;;;;5031893;28;20453;-81
2023/11/30 10:04:17;;;;;;;26.30;13.33;;;3.90;73.60;;;;;;5023557;28;20277;-79
2023/11/30 10:06:46;;;;;;;24.77;13.00;;;3.80;73.70;;;;;;5023694;28;20480;-79
2023/11/30 10:09:13;;;;;;;25.70;12.00;;;3.70;74.30;;;;;;5028742;28;20426;-80
2023/11/30 10:11:43;;;;;;;20.73;11.20;;;3.80;74.60;;;;;;5028277;28;20427;-80
2023/11/30 10:14:09;;;;;;;24.87;12.80;;;3.80;74.00;;;;;;5037788;28;20425;-78
2023/11/30 10:16:35;;;;;;;20.43;10.63;;;3.80;74.00;;;;;;5029757;28;20475;-80
2023/11/30 10:19:04;;;;;;;23.53;11.57;;;3.80;74.30;;;;;;5030670;28;20936;-82
2023/11/30 10:21:30;;;;;;;21.20;11.60;;;3.90;74.60;;;;;;5016801;28;20441;-81
2023/11/30 10:23:59;;;;;;;22.93;10.87;;;4.00;75.10;;;;;;5029700;28;20984;-79
2023/11/30 10:26:27;;;;;;;21.10;10.63;;;4.10;75.10;;;;;;5024500;28;20835;-80
2023/11/30 10:28:53;;;;;;;19.33;10.10;;;4.20;74.30;;;;;;5028886;28;20417;-81
2023/11/30 10:31:39;;;;;;;21.07;10.80;;;4.40;73.70;;;;;;5021814;28;20881;-80
2023/11/30 10:34:11;;;;;;;16.67;9.80;;;4.50;73.00;;;;;;5029259;28;20945;-81
2023/11/30 10:36:39;;;;;;;16.00;9.30;;;4.50;72.10;;;;;;5029679;28;20532;-80
2023/11/30 10:39:16;;;;;;;17.77;9.57;;;4.50;72.00;;;;;;5032107;28;20464;-80
2023/11/30 10:41:55;;;;;;;16.20;9.57;;;4.50;72.00;;;;;;5028756;28;20902;-79
2023/11/30 10:44:25;;;;;;;16.60;9.67;;;4.60;72.00;;;;;;5024537;28;20420;-80
2023/11/30 10:46:55;;;;;;;18.30;9.60;;;4.60;71.80;;;;;;5037728;28;20418;-78
2023/11/30 10:49:23;;;;;;;18.30;10.43;;;4.60;71.70;;;;;;5029994;28;20450;-80
2023/11/30 10:51:51;;;;;;;16.93;9.70;;;4.80;71.70;;;;;;5029258;28;20427;-80
2023/11/30 10:54:39;;;;;;;16.83;9.47;;;4.80;71.70;;;;;;5027929;28;20425;-80
2023/11/30 10:57:06;;;;;;;19.40;10.73;;;5.00;71.40;;;;;;5031688;28;20483;-79
2023/11/30 10:59:32;;;;;;;18.13;10.00;;;5.00;70.80;;;;;;5026990;28;22613;-82
2023/11/30 11:01:59;;;;;;;22.63;10.13;;;5.00;71.00;;;;;;5038125;28;20451;-78
2023/11/30 11:04:26;;;;;;;21.03;10.90;;;5.10;71.00;;;;;;5055208;28;20441;-79
2023/11/30 11:07:05;;;;;;;17.07;10.57;;;5.10;71.00;;;;;;5046535;28;20424;-78
2023/11/30 11:09:50;;;;;;;18.93;10.37;;;5.00;70.50;;;;;;5034821;28;20448;-79
2023/11/30 11:12:38;;;;;;;21.20;9.70;;;5.10;71.10;;;;;;5041301;28;20421;-79
2023/11/30 11:15:08;;;;;;;19.40;10.37;;;5.30;70.40;;;;;;5037333;28;20484;-81
2023/11/30 11:17:45;;;;;;;16.97;9.77;;;5.40;70.10;;;;;;5040010;28;20628;-78
2023/11/30 11:20:23;;;;;;;15.00;8.87;;;5.50;70.10;;;;;;5029509;28;20474;-78
2023/11/30 11:23:09;;;;;;;13.73;9.03;;;5.50;69.90;;;;;;5029561;28;20767;-81
2023/11/30 11:25:36;;;;;;;20.87;10.83;;;5.60;69.80;;;;;;5028365;28;20424;-80
2023/11/30 11:28:08;;;;;;;17.53;9.97;;;5.50;69.70;;;;;;5024927;28;20803;-80
2023/11/30 11:30:43;;;;;;;17.60;9.43;;;5.50;69.90;;;;;;5021723;28;20556;-80
2023/11/30 11:33:09;;;;;;;18.20;9.87;;;5.50;70.10;;;;;;5025438;28;20408;-81
2023/11/30 11:35:35;;;;;;;17.20;9.90;;;5.50;70.20;;;;;;5026865;28;20432;-80
2023/11/30 11:38:01;;;;;;;18.37;10.07;;;5.50;70.10;;;;;;5023573;28;20440;-81
2023/11/30 11:40:28;;;;;;;17.10;10.20;;;5.40;70.20;;;;;;5028051;28;20210;-78
2023/11/30 11:42:54;;;;;;;19.20;11.47;;;5.30;70.20;;;;;;5032030;28;20436;-79
2023/11/30 11:45:21;;;;;;;22.20;10.90;;;5.20;70.80;;;;;;5032321;28;20464;-81
2023/11/30 11:47:49;;;;;;;20.60;10.17;;;5.30;70.80;;;;;;5039430;28;20413;-79
2023/11/30 11:50:15;;;;;;;18.53;9.90;;;5.30;70.50;;;;;;5031965;28;20460;-78
2023/11/30 11:52:42;;;;;;;17.23;8.70;;;5.40;70.50;;;;;;5031539;28;20464;-80
2023/11/30 11:55:10;;;;;;;20.40;10.20;;;5.40;70.40;;;;;;5031400;28;20214;-79
2023/11/30 11:57:43;;;;;;;16.73;8.80;;;5.40;70.50;;;;;;5036727;28;20479;-79
2023/11/30 12:00:20;;;;;;;16.83;10.07;;;5.40;70.50;;;;;;5026784;28;20456;-78
2023/11/30 12:02:46;;;;;;;20.10;10.67;;;5.40;70.50;;;;;;5031262;28;20451;-80
2023/11/30 12:05:12;;;;;;;16.60;9.27;;;5.50;70.70;;;;;;5029947;28;20496;-78
2023/11/30 12:07:57;;;;;;;17.07;10.10;;;5.50;70.50;;;;;;5034967;28;20424;-80
2023/11/30 12:10:28;;;;;;;17.37;10.10;;;5.60;70.20;;;;;;5032858;28;20519;-80
2023/11/30 12:12:55;;;;;;;19.33;9.60;;;5.50;70.10;;;;;;5037908;28;20791;-79
2023/11/30 12:15:21;;;;;;;17.10;9.60;;;5.50;70.40;;;;;;5033669;28;20422;-80
2023/11/30 12:17:47;;;;;;;19.87;9.77;;;5.50;70.50;;;;;;5030830;28;20456;-81
2023/11/30 12:20:13;;;;;;;14.67;8.80;;;5.40;70.70;;;;;;5023067;28;20457;-79
2023/11/30 12:22:40;;;;;;;17.80;9.77;;;5.40;70.80;;;;;;5033905;28;20197;-79
2023/11/30 12:25:06;;;;;;;17.50;10.03;;;5.50;70.70;;;;;;5028655;28;21000;-79
2023/11/30 12:27:32;;;;;;;16.90;9.90;;;5.50;70.70;;;;;;5019814;28;20518;-78
2023/11/30 12:29:58;;;;;;;14.67;9.50;;;5.30;71.00;;;;;;5022460;28;20472;-80
2023/11/30 12:32:24;;;;;;;14.37;8.70;;;5.20;71.10;;;;;;5027696;28;20196;-80
2023/11/30 12:34:50;;;;;;;18.73;9.20;;;5.10;71.30;;;;;;5032971;28;20424;-79
2023/11/30 12:37:15;;;;;;;18.13;9.73;;;5.10;71.60;;;;;;5024695;28;20253;-80
2023/11/30 12:39:41;;;;;;;17.83;10.13;;;5.00;71.40;;;;;;5029794;28;20305;-78
2023/11/30 12:42:06;;;;;;;18.63;10.57;;;4.80;72.00;;;;;;5028613;28;20214;-78
2023/11/30 12:44:33;;;;;;;16.20;9.10;;;4.80;72.60;;;;;;5026196;28;20198;-79